Time;durP1;ratioP1;P1;durP2;ratioP2;P2;SDS_P1;SDS_P2;PMS_P1;PMS_P2;Temp;Humidity;BMP_temperature;BMP_pressure;BME280_temperature;BME280_humidity;BME280_pressure;Samples;Min_cycle;Max_cycle;Signal;HPM_P1;HPM_P2
2024/01/06 00:01:12;;;;;;;0.60;0.60;;;5.70;99.90;;;;;;4925913;29;20179;-61
2024/01/06 00:03:37;;;;;;;0.75;0.65;;;5.70;99.90;;;;;;4925186;29;20175;-61
2024/01/06 00:06:04;;;;;;;0.50;0.43;;;5.70;99.90;;;;;;4924487;29;20221;-61
2024/01/06 00:08:31;;;;;;;0.77;0.77;;;5.70;99.90;;;;;;4925869;29;20182;-60
2024/01/06 00:10:56;;;;;;;1.42;0.90;;;5.60;99.90;;;;;;4931801;29;20206;-60
2024/01/06 00:13:22;;;;;;;0.32;0.32;;;5.50;99.90;;;;;;4933973;29;20207;-60
2024/01/06 00:15:48;;;;;;;0.83;0.77;;;5.60;99.90;;;;;;4934786;29;20270;-61
2024/01/06 00:18:13;;;;;;;0.97;0.70;;;5.60;99.90;;;;;;4935004;29;20170;-61
2024/01/06 00:20:39;;;;;;;0.73;0.73;;;5.60;99.90;;;;;;4934483;29;20182;-61
2024/01/06 00:23:05;;;;;;;0.77;0.77;;;5.60;99.90;;;;;;4934899;29;20604;-61
2024/01/06 00:25:30;;;;;;;1.60;1.50;;;5.60;99.90;;;;;;4934991;29;20240;-61
2024/01/06 00:27:56;;;;;;;0.43;0.43;;;5.60;99.90;;;;;;4934817;29;20199;-61
2024/01/06 00:30:21;;;;;;;0.77;0.77;;;5.40;99.90;;;;;;4934603;29;20609;-61
2024/01/06 00:32:47;;;;;;;0.40;0.40;;;5.40;99.90;;;;;;4934670;29;20172;-61
2024/01/06 00:35:13;;;;;;;0.50;0.50;;;5.50;99.90;;;;;;4934765;29;20185;-60
2024/01/06 00:37:38;;;;;;;0.40;0.40;;;5.50;99.90;;;;;;4934847;29;20249;-61
2024/01/06 00:40:04;;;;;;;0.60;0.60;;;5.50;99.90;;;;;;4934601;29;20171;-61
2024/01/06 00:42:30;;;;;;;3.22;0.50;;;5.40;99.90;;;;;;4934649;29;20277;-61
2024/01/06 00:44:56;;;;;;;1.23;0.80;;;5.40;99.90;;;;;;4934695;29;20263;-61
2024/01/06 00:47:24;;;;;;;0.40;0.40;;;5.40;99.90;;;;;;4934605;29;20686;-61
2024/01/06 00:49:49;;;;;;;0.30;0.30;;;5.40;99.90;;;;;;4934406;29;20176;-61
2024/01/06 00:52:15;;;;;;;1.90;0.70;;;5.20;99.90;;;;;;4934313;29;20404;-61
2024/01/06 00:54:41;;;;;;;0.40;0.40;;;5.10;99.90;;;;;;4934534;29;20174;-61
2024/01/06 00:57:06;;;;;;;0.70;0.40;;;5.20;99.90;;;;;;4934325;29;20216;-61
2024/01/06 00:59:32;;;;;;;0.50;0.50;;;5.10;99.90;;;;;;4934429;29;20170;-61
2024/01/06 01:01:58;;;;;;;0.60;0.60;;;5.20;99.90;;;;;;4934335;29;20185;-61
2024/01/06 01:04:23;;;;;;;0.87;0.87;;;5.20;99.90;;;;;;4934355;29;20265;-61
2024/01/06 01:06:49;;;;;;;0.40;0.40;;;5.30;99.90;;;;;;4934415;29;20249;-61
2024/01/06 01:09:14;;;;;;;0.40;0.40;;;5.40;99.90;;;;;;4934433;29;20197;-61
2024/01/06 01:11:41;;;;;;;0.40;0.40;;;5.40;99.90;;;;;;4934115;29;20202;-61
2024/01/06 01:14:06;;;;;;;0.40;0.40;;;5.40;99.90;;;;;;4934360;29;20166;-61
2024/01/06 01:16:32;;;;;;;0.30;0.30;;;5.30;99.90;;;;;;4934384;29;20723;-61
2024/01/06 01:18:58;;;;;;;0.53;0.53;;;5.40;99.90;;;;;;4934196;29;20174;-61
2024/01/06 01:21:24;;;;;;;0.40;0.40;;;5.40;99.90;;;;;;4934013;29;20245;-62
2024/01/06 01:23:50;;;;;;;4.60;1.15;;;5.40;99.90;;;;;;4937428;29;20183;-61
2024/01/06 01:26:15;;;;;;;0.97;0.73;;;5.40;99.90;;;;;;4938053;29;20194;-61
2024/01/06 01:28:41;;;;;;;0.40;0.40;;;5.30;99.90;;;;;;4938028;29;20174;-61
2024/01/06 01:31:06;;;;;;;0.30;0.30;;;5.30;99.90;;;;;;4938118;29;20692;-61
2024/01/06 01:33:32;;;;;;;0.40;0.40;;;5.20;99.90;;;;;;4937888;29;20695;-61
2024/01/06 01:35:58;;;;;;;0.40;0.40;;;5.10;99.90;;;;;;4938285;29;20596;-61
2024/01/06 01:38:23;;;;;;;0.40;0.40;;;5.20;99.90;;;;;;4938035;29;20172;-61
2024/01/06 01:40:49;;;;;;;0.60;0.60;;;5.20;99.90;;;;;;4937527;29;20182;-61
2024/01/06 01:43:21;;;;;;;0.70;0.70;;;5.30;99.90;;;;;;4937821;29;20198;-61
2024/01/06 01:45:56;;;;;;;0.40;0.40;;;5.40;99.90;;;;;;4937676;29;20181;-61
2024/01/06 01:48:23;;;;;;;0.40;0.40;;;5.30;99.90;;;;;;4920872;29;20551;-61
2024/01/06 01:50:50;;;;;;;0.40;0.40;;;5.20;99.90;;;;;;4937236;29;20208;-61
2024/01/06 01:53:16;;;;;;;0.30;0.30;;;5.20;99.90;;;;;;4937698;29;20261;-61
2024/01/06 01:55:43;;;;;;;0.40;0.40;;;5.10;99.90;;;;;;4937504;29;20294;-61
2024/01/06 01:58:12;;;;;;;0.95;0.95;;;5.00;99.90;;;;;;4937340;29;20437;-61
2024/01/06 02:00:37;;;;;;;0.50;0.50;;;5.10;99.90;;;;;;4937067;29;20177;-61
2024/01/06 02:03:05;;;;;;;0.33;0.33;;;5.10;99.90;;;;;;4937585;29;20660;-61
2024/01/06 02:05:30;;;;;;;0.40;0.40;;;5.20;99.90;;;;;;4937362;29;20270;-60
2024/01/06 02:07:56;;;;;;;0.30;0.30;;;5.10;99.90;;;;;;4937216;29;20224;-61
2024/01/06 02:10:22;;;;;;;1.25;0.63;;;5.20;99.90;;;;;;4937101;29;20228;-60
2024/01/06 02:12:48;;;;;;;0.40;0.40;;;5.20;99.90;;;;;;4937095;29;20230;-61
2024/01/06 02:15:14;;;;;;;0.40;0.40;;;5.20;99.90;;;;;;4937038;29;20171;-61
2024/01/06 02:17:40;;;;;;;0.60;0.50;;;5.20;99.90;;;;;;4937099;29;20641;-61
2024/01/06 02:20:08;;;;;;;1.08;1.02;;;5.10;99.90;;;;;;4936904;29;20180;-61
2024/01/06 02:22:35;;;;;;;0.40;0.40;;;5.20;99.90;;;;;;4936953;29;20552;-61
2024/01/06 02:25:02;;;;;;;0.40;0.40;;;5.20;99.90;;;;;;4937015;29;20179;-61
2024/01/06 02:27:27;;;;;;;0.32;0.32;;;5.20;99.90;;;;;;4920059;29;20691;-61
2024/01/06 02:29:53;;;;;;;0.70;0.70;;;5.20;99.90;;;;;;4936658;29;20268;-60
2024/01/06 02:32:18;;;;;;;0.50;0.40;;;5.30;99.90;;;;;;4936716;29;20293;-61
2024/01/06 02:34:44;;;;;;;0.30;0.30;;;5.20;99.90;;;;;;4936095;29;20551;-61
2024/01/06 02:37:10;;;;;;;0.30;0.30;;;5.20;99.90;;;;;;4936831;29;20198;-61
2024/01/06 02:39:35;;;;;;;0.30;0.30;;;5.30;99.90;;;;;;4937008;29;20247;-61
2024/01/06 02:42:01;;;;;;;0.50;0.50;;;5.20;99.90;;;;;;4936744;29;20266;-61
2024/01/06 02:44:26;;;;;;;0.93;0.60;;;5.20;99.90;;;;;;4936592;29;20178;-61
2024/01/06 02:46:54;;;;;;;1.80;1.37;;;5.20;99.90;;;;;;4936640;29;20198;-61
2024/01/06 02:49:19;;;;;;;0.40;0.40;;;5.30;99.90;;;;;;4936548;29;20262;-61
2024/01/06 02:51:45;;;;;;;0.60;0.60;;;5.30;99.90;;;;;;4936540;29;20671;-61
2024/01/06 02:54:10;;;;;;;0.63;0.63;;;5.30;99.90;;;;;;4936502;29;20261;-60
2024/01/06 02:56:38;;;;;;;0.40;0.40;;;5.30;99.90;;;;;;4936259;29;20206;-61
2024/01/06 02:59:03;;;;;;;0.47;0.47;;;5.20;99.90;;;;;;4936325;29;20597;-61
2024/01/06 03:01:29;;;;;;;1.27;1.27;;;5.10;99.90;;;;;;4937244;29;20278;-60
2024/01/06 03:03:57;;;;;;;0.40;0.40;;;5.10;99.90;;;;;;4955831;29;20174;-61
2024/01/06 03:06:23;;;;;;;0.40;0.40;;;5.20;99.90;;;;;;4955472;28;20210;-61
2024/01/06 03:08:48;;;;;;;0.50;0.50;;;5.20;99.90;;;;;;4955375;29;20556;-61
2024/01/06 03:11:14;;;;;;;0.40;0.40;;;5.20;99.90;;;;;;4955035;29;20194;-61
2024/01/06 03:13:40;;;;;;;0.50;0.50;;;5.20;99.90;;;;;;4954064;29;20166;-61
2024/01/06 03:16:05;;;;;;;0.40;0.40;;;5.10;99.90;;;;;;4955124;28;21005;-61
2024/01/06 03:18:31;;;;;;;0.47;0.47;;;5.10;99.90;;;;;;4953868;29;20174;-63
2024/01/06 03:20:57;;;;;;;0.60;0.60;;;5.10;99.90;;;;;;4934691;29;20182;-61
2024/01/06 03:23:22;;;;;;;0.43;0.43;;;5.10;99.90;;;;;;4923160;29;20616;-61
2024/01/06 03:25:52;;;;;;;0.40;0.40;;;5.10;99.90;;;;;;4919465;29;20171;-61
2024/01/06 03:28:17;;;;;;;0.30;0.30;;;5.10;99.90;;;;;;4913626;29;20209;-61
2024/01/06 03:30:43;;;;;;;0.40;0.40;;;5.10;99.90;;;;;;4932820;29;20207;-59
2024/01/06 03:33:09;;;;;;;0.40;0.40;;;5.20;99.90;;;;;;4936925;29;20193;-61
2024/01/06 03:35:34;;;;;;;0.60;0.60;;;5.10;99.90;;;;;;4941878;29;20170;-60
2024/01/06 03:38:00;;;;;;;0.50;0.50;;;5.10;99.90;;;;;;4937171;29;20198;-60
2024/01/06 03:40:26;;;;;;;2.60;0.83;;;5.10;99.90;;;;;;4933444;29;20493;-61
2024/01/06 03:42:53;;;;;;;0.50;0.50;;;5.00;99.90;;;;;;4923020;29;20236;-59
2024/01/06 03:45:19;;;;;;;0.70;0.50;;;5.20;99.90;;;;;;4932120;29;20172;-60
2024/01/06 03:47:44;;;;;;;0.53;0.53;;;5.20;99.90;;;;;;4929558;29;20204;-60
2024/01/06 03:50:10;;;;;;;0.40;0.40;;;5.20;99.90;;;;;;4922785;29;20182;-60
2024/01/06 03:52:37;;;;;;;1.67;0.73;;;5.20;99.90;;;;;;4922914;29;20207;-61
2024/01/06 03:55:03;;;;;;;0.40;0.40;;;5.10;99.90;;;;;;4922820;29;20186;-61
2024/01/06 03:57:30;;;;;;;0.40;0.40;;;5.00;99.90;;;;;;4922591;29;20451;-60
2024/01/06 03:59:55;;;;;;;0.40;0.40;;;5.00;99.90;;;;;;4923217;29;20282;-61
2024/01/06 04:02:21;;;;;;;0.40;0.40;;;5.00;99.90;;;;;;4923197;29;20215;-61
2024/01/06 04:04:47;;;;;;;0.80;0.80;;;5.00;99.90;;;;;;4921279;29;20432;-61
2024/01/06 04:07:12;;;;;;;1.37;0.60;;;5.10;99.90;;;;;;4916104;29;20282;-61
2024/01/06 04:09:41;;;;;;;1.07;0.90;;;5.10;99.90;;;;;;4916088;29;20177;-61
2024/01/06 04:12:07;;;;;;;1.48;1.38;;;5.10;99.90;;;;;;4915788;29;20243;-61
2024/01/06 04:14:32;;;;;;;0.40;0.40;;;5.10;99.90;;;;;;4916096;29;20211;-61
2024/01/06 04:16:58;;;;;;;0.60;0.60;;;5.20;99.90;;;;;;4916047;29;20498;-61
2024/01/06 04:19:24;;;;;;;0.40;0.40;;;5.20;99.90;;;;;;4915941;29;20175;-61
2024/01/06 04:21:49;;;;;;;0.40;0.40;;;5.10;99.90;;;;;;4915752;29;20423;-61
2024/01/06 04:24:15;;;;;;;0.50;0.50;;;5.10;99.90;;;;;;4915953;29;20629;-61
2024/01/06 04:26:44;;;;;;;0.30;0.30;;;4.90;99.90;;;;;;4915888;29;20674;-61
2024/01/06 04:29:10;;;;;;;1.88;0.73;;;4.80;99.90;;;;;;4915771;29;20186;-61
2024/01/06 04:31:36;;;;;;;0.60;0.60;;;4.90;99.90;;;;;;4915540;29;20207;-61
2024/01/06 04:34:03;;;;;;;0.50;0.50;;;5.00;99.90;;;;;;4915706;29;20514;-61
2024/01/06 04:36:28;;;;;;;0.40;0.40;;;5.00;99.90;;;;;;4915630;29;20210;-61
2024/01/06 04:38:54;;;;;;;0.40;0.40;;;5.00;99.90;;;;;;4915749;29;20171;-61
2024/01/06 04:41:20;;;;;;;0.90;0.90;;;4.90;99.90;;;;;;4915483;29;20659;-60
2024/01/06 04:43:46;;;;;;;2.20;1.00;;;4.80;99.90;;;;;;4915784;29;20175;-61
2024/01/06 04:46:11;;;;;;;0.40;0.40;;;4.80;99.90;;;;;;4915696;29;20845;-61
2024/01/06 04:48:40;;;;;;;0.60;0.60;;;4.80;99.90;;;;;;4915664;29;20178;-61
2024/01/06 04:51:09;;;;;;;0.47;0.47;;;4.70;99.90;;;;;;4915274;29;20231;-61
2024/01/06 04:53:38;;;;;;;2.97;1.10;;;4.50;99.90;;;;;;4915741;29;20610;-61
2024/01/06 04:56:04;;;;;;;0.32;0.32;;;4.50;99.90;;;;;;4915536;29;20198;-61
2024/01/06 04:58:29;;;;;;;0.70;0.67;;;4.60;99.90;;;;;;4920531;29;20662;-61
2024/01/06 05:00:55;;;;;;;17.23;2.40;;;4.70;99.90;;;;;;4921451;29;20419;-61
2024/01/06 05:03:20;;;;;;;0.40;0.40;;;4.70;99.90;;;;;;4921927;29;20174;-61
2024/01/06 05:05:46;;;;;;;0.80;0.80;;;4.80;99.90;;;;;;4921789;29;20178;-61
2024/01/06 05:08:12;;;;;;;0.50;0.50;;;4.80;99.90;;;;;;4921804;29;20316;-61
2024/01/06 05:10:38;;;;;;;0.30;0.30;;;4.70;99.90;;;;;;4921376;29;20482;-61
2024/01/06 05:13:03;;;;;;;0.30;0.30;;;4.60;99.90;;;;;;4921748;29;20246;-61
2024/01/06 05:15:29;;;;;;;0.40;0.40;;;4.60;99.90;;;;;;4921667;29;20174;-61
2024/01/06 05:17:55;;;;;;;0.83;0.83;;;4.60;99.90;;;;;;4921616;29;20191;-61
2024/01/06 05:20:20;;;;;;;0.40;0.40;;;4.60;99.90;;;;;;4921543;29;20178;-60
2024/01/06 05:22:46;;;;;;;0.53;0.53;;;4.70;99.90;;;;;;4921517;29;20525;-61
2024/01/06 05:25:12;;;;;;;0.40;0.40;;;4.80;99.90;;;;;;4921741;29;20185;-61
2024/01/06 05:27:37;;;;;;;2.20;0.60;;;4.90;99.90;;;;;;4922014;29;20669;-61
2024/01/06 05:30:03;;;;;;;0.60;0.60;;;4.90;99.90;;;;;;4921416;29;20171;-61
2024/01/06 05:32:29;;;;;;;0.30;0.30;;;4.90;99.90;;;;;;4921299;29;20724;-61
2024/01/06 05:34:55;;;;;;;0.40;0.40;;;4.80;99.90;;;;;;4921683;29;20178;-60
2024/01/06 05:37:20;;;;;;;0.50;0.50;;;4.80;99.90;;;;;;4921488;29;20191;-61
2024/01/06 05:39:46;;;;;;;0.30;0.30;;;4.80;99.90;;;;;;4921428;29;20182;-61
2024/01/06 05:42:13;;;;;;;0.43;0.43;;;4.80;99.90;;;;;;4921277;29;20198;-61
2024/01/06 05:44:38;;;;;;;21.77;1.00;;;4.80;99.90;;;;;;4921377;29;20184;-61
2024/01/06 05:47:04;;;;;;;0.40;0.40;;;4.80;99.90;;;;;;4921356;29;20215;-61
2024/01/06 05:49:30;;;;;;;0.50;0.50;;;4.80;99.90;;;;;;4921537;29;20174;-61
2024/01/06 05:51:56;;;;;;;0.40;0.40;;;4.80;99.90;;;;;;4921207;29;20519;-61
2024/01/06 05:54:21;;;;;;;0.40;0.40;;;4.70;99.90;;;;;;4921405;29;20178;-61
2024/01/06 05:56:47;;;;;;;0.40;0.40;;;4.70;99.90;;;;;;4921232;29;20214;-60
2024/01/06 05:59:12;;;;;;;3.80;2.53;;;4.60;99.90;;;;;;4921296;29;20210;-61
2024/01/06 06:01:38;;;;;;;0.50;0.40;;;4.60;99.90;;;;;;4921065;29;20202;-61
2024/01/06 06:04:04;;;;;;;0.40;0.40;;;4.60;99.90;;;;;;4921381;29;20564;-61
2024/01/06 06:06:30;;;;;;;0.37;0.37;;;4.60;99.90;;;;;;4921399;29;20202;-61
2024/01/06 06:08:56;;;;;;;1.17;1.15;;;4.60;99.90;;;;;;4918887;29;20175;-61
2024/01/06 06:11:21;;;;;;;0.40;0.40;;;4.60;99.90;;;;;;4918078;29;20562;-61
2024/01/06 06:13:47;;;;;;;0.37;0.37;;;4.60;99.90;;;;;;4918131;29;20413;-61
2024/01/06 06:16:13;;;;;;;0.60;0.60;;;4.60;99.90;;;;;;4918256;29;20763;-61
2024/01/06 06:18:39;;;;;;;0.40;0.40;;;4.70;99.90;;;;;;4918306;29;20190;-61
2024/01/06 06:21:06;;;;;;;0.45;0.45;;;4.70;99.90;;;;;;4917923;29;20199;-61
2024/01/06 06:23:32;;;;;;;0.50;0.50;;;4.60;99.90;;;;;;4918078;29;20221;-61
2024/01/06 06:25:57;;;;;;;0.70;0.70;;;4.60;99.90;;;;;;4917858;29;20200;-61
2024/01/06 06:28:23;;;;;;;0.37;0.37;;;4.50;99.90;;;;;;4917937;29;20702;-61
2024/01/06 06:30:49;;;;;;;1.80;0.80;;;4.40;99.90;;;;;;4917514;29;20203;-61
2024/01/06 06:33:15;;;;;;;0.30;0.30;;;4.40;99.90;;;;;;4917990;29;20175;-61
2024/01/06 06:35:40;;;;;;;0.50;0.50;;;4.50;99.90;;;;;;4918130;29;20182;-61
2024/01/06 06:38:06;;;;;;;0.40;0.40;;;4.50;99.90;;;;;;4917845;29;20543;-61
2024/01/06 06:40:32;;;;;;;0.40;0.40;;;4.60;99.90;;;;;;4917640;29;20171;-60
2024/01/06 06:42:57;;;;;;;0.50;0.50;;;4.60;99.90;;;;;;4917590;29;20233;-61
2024/01/06 06:45:23;;;;;;;0.30;0.30;;;4.60;99.90;;;;;;4917684;29;20246;-61
2024/01/06 06:47:49;;;;;;;0.40;0.40;;;4.50;99.90;;;;;;4917685;29;20270;-61
2024/01/06 06:50:20;;;;;;;0.40;0.40;;;4.50;99.90;;;;;;4917480;29;20423;-61
2024/01/06 06:52:46;;;;;;;0.40;0.40;;;4.40;99.90;;;;;;4917443;29;20223;-61
2024/01/06 06:55:12;;;;;;;0.40;0.40;;;4.30;99.90;;;;;;4917974;29;20187;-61
2024/01/06 06:57:38;;;;;;;0.57;0.57;;;4.30;99.90;;;;;;4917273;29;20215;-60
2024/01/06 07:00:07;;;;;;;0.45;0.45;;;4.30;99.90;;;;;;4917273;29;20265;-61
2024/01/06 07:02:33;;;;;;;0.32;0.32;;;4.30;99.90;;;;;;4917357;29;20198;-61
2024/01/06 07:04:58;;;;;;;2.05;1.58;;;4.20;99.90;;;;;;4917470;29;20649;-61
2024/01/06 07:07:24;;;;;;;4.17;1.53;;;4.30;99.90;;;;;;4916500;29;20259;-61
2024/01/06 07:09:50;;;;;;;0.30;0.30;;;4.20;99.90;;;;;;4917013;29;20231;-61
2024/01/06 07:12:15;;;;;;;0.40;0.40;;;4.20;99.90;;;;;;4916921;29;20685;-61
2024/01/06 07:14:41;;;;;;;2.47;0.67;;;4.10;99.90;;;;;;4916512;29;20207;-61
2024/01/06 07:17:08;;;;;;;0.40;0.40;;;4.00;99.90;;;;;;4917049;29;20277;-61
2024/01/06 07:19:34;;;;;;;0.40;0.40;;;4.20;99.90;;;;;;4917088;29;20234;-60
2024/01/06 07:22:00;;;;;;;0.40;0.40;;;4.30;99.90;;;;;;4916487;29;20605;-61
2024/01/06 07:24:26;;;;;;;0.40;0.40;;;4.30;99.90;;;;;;4917055;29;20720;-61
2024/01/06 07:26:52;;;;;;;0.40;0.40;;;4.30;99.90;;;;;;4916863;29;20202;-61
2024/01/06 07:29:18;;;;;;;0.40;0.40;;;4.40;99.90;;;;;;4917064;29;20181;-61
2024/01/06 07:31:44;;;;;;;0.55;0.55;;;4.50;99.90;;;;;;4917515;29;20205;-60
2024/01/06 07:34:10;;;;;;;2.67;0.70;;;4.50;99.90;;;;;;4954462;29;20308;-61
2024/01/06 07:36:35;;;;;;;0.73;0.73;;;4.50;99.90;;;;;;4954495;28;20573;-61
2024/01/06 07:39:02;;;;;;;0.40;0.40;;;4.50;99.90;;;;;;4954812;29;20177;-61
2024/01/06 07:41:30;;;;;;;0.40;0.40;;;4.60;99.90;;;;;;4954313;29;20202;-61
2024/01/06 07:43:56;;;;;;;0.45;0.45;;;4.60;99.90;;;;;;4954871;29;20680;-61
2024/01/06 07:46:21;;;;;;;1.03;0.93;;;4.60;99.90;;;;;;4954668;28;20291;-61
2024/01/06 07:48:47;;;;;;;0.60;0.60;;;4.60;99.90;;;;;;4954649;29;20177;-61
2024/01/06 07:51:13;;;;;;;0.50;0.50;;;4.50;99.90;;;;;;4954228;29;20224;-60
2024/01/06 07:53:38;;;;;;;1.17;1.17;;;4.50;99.90;;;;;;4954637;29;20605;-61
2024/01/06 07:56:04;;;;;;;1.60;1.17;;;4.50;99.90;;;;;;4954451;28;20193;-61
2024/01/06 07:58:30;;;;;;;0.53;0.53;;;4.50;99.90;;;;;;4954480;29;20260;-61
2024/01/06 08:00:55;;;;;;;0.30;0.30;;;4.50;99.90;;;;;;4954211;29;20437;-61
2024/01/06 08:03:21;;;;;;;0.50;0.50;;;4.60;99.90;;;;;;4954470;29;20256;-61
2024/01/06 08:05:47;;;;;;;0.40;0.40;;;4.80;99.90;;;;;;4954373;28;20184;-61
2024/01/06 08:08:14;;;;;;;0.67;0.67;;;4.80;99.90;;;;;;4954418;29;20897;-61
2024/01/06 08:10:40;;;;;;;0.70;0.70;;;4.70;99.90;;;;;;4953931;29;20264;-61
2024/01/06 08:13:06;;;;;;;0.47;0.47;;;4.80;99.90;;;;;;4954240;29;20257;-61
2024/01/06 08:15:32;;;;;;;0.40;0.40;;;4.90;99.90;;;;;;4954324;29;20260;-62
2024/01/06 08:17:57;;;;;;;0.30;0.30;;;4.80;99.90;;;;;;4954228;28;20718;-62
2024/01/06 08:20:23;;;;;;;0.60;0.60;;;4.80;99.90;;;;;;4953968;29;20209;-61
2024/01/06 08:22:49;;;;;;;1.33;1.30;;;4.90;99.90;;;;;;4953989;29;20181;-62
2024/01/06 08:25:17;;;;;;;1.07;1.07;;;5.00;99.90;;;;;;4954033;29;20209;-62
2024/01/06 08:27:43;;;;;;;0.50;0.50;;;5.00;99.90;;;;;;4954023;28;20209;-62
2024/01/06 08:30:09;;;;;;;35.92;1.33;;;5.10;99.90;;;;;;4953821;29;20223;-62
2024/01/06 08:32:35;;;;;;;1.08;1.00;;;5.10;99.90;;;;;;4953156;28;20284;-62
2024/01/06 08:35:00;;;;;;;1.20;1.10;;;5.10;99.90;;;;;;4953912;29;20257;-62
2024/01/06 08:37:26;;;;;;;0.83;0.83;;;5.10;99.90;;;;;;4953544;28;20201;-62
2024/01/06 08:39:51;;;;;;;0.77;0.77;;;5.10;99.90;;;;;;4953382;29;20424;-61
2024/01/06 08:42:17;;;;;;;0.60;0.60;;;5.10;99.90;;;;;;4953218;29;20169;-62
2024/01/06 08:44:43;;;;;;;0.90;0.60;;;5.00;99.90;;;;;;4953733;29;20250;-62
2024/01/06 08:47:09;;;;;;;0.30;0.30;;;5.00;99.90;;;;;;4953919;28;20189;-62
2024/01/06 08:49:35;;;;;;;0.40;0.40;;;5.00;99.90;;;;;;4953281;29;20240;-61
2024/01/06 08:52:01;;;;;;;1.10;1.10;;;5.00;99.90;;;;;;4952524;29;20201;-62
2024/01/06 08:54:26;;;;;;;0.60;0.60;;;4.90;99.90;;;;;;4953635;29;20172;-62
2024/01/06 08:56:52;;;;;;;0.90;0.90;;;5.00;99.90;;;;;;4953758;28;20220;-61
2024/01/06 08:59:18;;;;;;;0.40;0.40;;;5.00;99.90;;;;;;4953622;29;20464;-62
2024/01/06 09:01:43;;;;;;;0.67;0.67;;;5.00;99.90;;;;;;4953447;29;20169;-61
2024/01/06 09:04:11;;;;;;;2.27;2.17;;;5.00;99.90;;;;;;4953659;29;20232;-61
2024/01/06 09:06:36;;;;;;;0.60;0.60;;;5.20;99.90;;;;;;4953559;28;20193;-61
2024/01/06 09:09:02;;;;;;;3.77;1.03;;;5.20;99.90;;;;;;4953972;29;20195;-61
2024/01/06 09:11:28;;;;;;;3.60;1.03;;;5.20;99.90;;;;;;4953093;29;20213;-61
2024/01/06 09:13:53;;;;;;;2.63;2.10;;;5.30;99.90;;;;;;4953618;29;20173;-61
2024/01/06 09:16:19;;;;;;;2.63;2.53;;;5.40;99.90;;;;;;4953457;28;20469;-61
2024/01/06 09:18:45;;;;;;;1.83;1.03;;;5.40;99.90;;;;;;4953455;29;20170;-62
2024/01/06 09:21:11;;;;;;;0.77;0.70;;;5.40;99.90;;;;;;4953175;29;20426;-62
2024/01/06 09:23:36;;;;;;;0.50;0.50;;;5.30;99.90;;;;;;4953340;29;20179;-61
2024/01/06 09:26:02;;;;;;;1.03;1.00;;;5.30;99.90;;;;;;4953316;28;20196;-61
2024/01/06 09:28:28;;;;;;;0.43;0.43;;;5.40;99.90;;;;;;4953368;29;20261;-61
2024/01/06 09:30:55;;;;;;;1.43;1.33;;;5.50;99.90;;;;;;4953072;29;20211;-62
2024/01/06 09:33:22;;;;;;;0.65;0.65;;;5.60;99.90;;;;;;4953314;29;20191;-61
2024/01/06 09:35:47;;;;;;;6.47;0.70;;;5.70;99.90;;;;;;4953315;28;20186;-61
2024/01/06 09:38:13;;;;;;;1.07;0.97;;;5.90;99.90;;;;;;4953339;29;20168;-61
2024/01/06 09:40:44;;;;;;;0.77;0.77;;;6.00;99.90;;;;;;4952706;29;20208;-61
2024/01/06 09:43:11;;;;;;;0.40;0.40;;;5.90;99.90;;;;;;4953825;28;20166;-61
2024/01/06 09:45:37;;;;;;;1.42;1.42;;;6.00;99.90;;;;;;4957024;29;20188;-62
2024/01/06 09:48:12;;;;;;;1.02;0.82;;;6.00;99.90;;;;;;4956794;28;20279;-61
2024/01/06 09:50:41;;;;;;;1.25;0.80;;;5.90;99.90;;;;;;4956417;29;20635;-61
2024/01/06 09:53:09;;;;;;;2.08;1.45;;;5.90;99.90;;;;;;4957074;29;20207;-61
2024/01/06 09:55:35;;;;;;;1.33;1.00;;;5.80;99.90;;;;;;4956696;29;20181;-61
2024/01/06 09:58:01;;;;;;;1.57;1.47;;;5.70;99.90;;;;;;4956471;28;20216;-61
2024/01/06 10:00:27;;;;;;;0.93;0.93;;;5.70;99.90;;;;;;4956260;29;20502;-61
2024/01/06 10:02:54;;;;;;;0.40;0.40;;;5.70;99.90;;;;;;4956392;29;20231;-61
2024/01/06 10:05:20;;;;;;;1.10;0.98;;;5.70;99.90;;;;;;4957866;29;20480;-59
2024/01/06 10:07:47;;;;;;;1.80;0.90;;;5.80;99.90;;;;;;4959144;28;20209;-59
2024/01/06 10:10:13;;;;;;;11.98;0.98;;;5.80;99.90;;;;;;4960055;29;20552;-59
2024/01/06 10:12:40;;;;;;;1.10;0.75;;;5.90;99.90;;;;;;4959452;29;20217;-60
2024/01/06 10:15:07;;;;;;;0.90;0.90;;;6.00;99.90;;;;;;4960202;29;20261;-60
2024/01/06 10:17:36;;;;;;;0.40;0.40;;;6.20;99.90;;;;;;4959089;28;20198;-60
2024/01/06 10:20:02;;;;;;;0.50;0.50;;;6.20;99.90;;;;;;4959096;29;20177;-60
2024/01/06 10:22:28;;;;;;;0.40;0.40;;;6.30;99.90;;;;;;4959100;29;20662;-60
2024/01/06 10:24:55;;;;;;;0.60;0.60;;;6.40;99.90;;;;;;4959124;29;20185;-60
2024/01/06 10:27:21;;;;;;;1.27;1.17;;;6.40;99.90;;;;;;4958367;28;20213;-59
2024/01/06 10:29:47;;;;;;;5.80;1.05;;;6.50;99.90;;;;;;4961261;29;20240;-61
2024/01/06 10:32:13;;;;;;;2.23;2.10;;;6.50;99.70;;;;;;4961799;29;20192;-61
2024/01/06 10:34:38;;;;;;;0.60;0.60;;;6.50;99.90;;;;;;4960333;29;20593;-61
2024/01/06 10:37:05;;;;;;;1.10;1.10;;;6.60;99.90;;;;;;4960668;28;20196;-61
2024/01/06 10:39:31;;;;;;;0.50;0.50;;;6.70;99.80;;;;;;4957072;29;20201;-61
2024/01/06 10:41:57;;;;;;;1.03;0.60;;;6.90;99.90;;;;;;4957459;29;20189;-61
2024/01/06 10:44:24;;;;;;;0.70;0.70;;;7.10;99.10;;;;;;4958022;29;20185;-61
2024/01/06 10:46:52;;;;;;;2.45;1.42;;;7.20;98.70;;;;;;4958146;28;20209;-60
2024/01/06 10:49:21;;;;;;;1.00;0.80;;;7.40;98.30;;;;;;4957870;29;20243;-61
2024/01/06 10:51:49;;;;;;;0.82;0.82;;;7.40;97.30;;;;;;4957249;29;20221;-61
2024/01/06 10:54:15;;;;;;;0.60;0.60;;;7.40;97.60;;;;;;4958526;29;20730;-61
2024/01/06 10:56:43;;;;;;;0.80;0.80;;;7.10;95.50;;;;;;4958291;28;20217;-61
2024/01/06 10:59:12;;;;;;;1.02;0.95;;;6.90;96.10;;;;;;4958736;29;20550;-61
2024/01/06 11:01:39;;;;;;;0.50;0.50;;;6.80;96.30;;;;;;4960120;29;20256;-60
2024/01/06 11:04:05;;;;;;;0.30;0.30;;;6.70;95.90;;;;;;4960553;29;20188;-60
2024/01/06 11:06:32;;;;;;;0.70;0.70;;;6.70;96.20;;;;;;4960002;28;20204;-61
2024/01/06 11:09:09;;;;;;;0.70;0.70;;;6.70;97.00;;;;;;4958609;29;20188;-61
2024/01/06 11:11:37;;;;;;;0.65;0.50;;;6.60;96.10;;;;;;4958869;29;20199;-61
2024/01/06 11:14:20;;;;;;;5.25;0.60;;;6.60;96.40;;;;;;4959554;29;20199;-60
2024/01/06 11:16:45;;;;;;;0.43;0.43;;;6.70;96.90;;;;;;4960903;28;20211;-61
2024/01/06 11:19:34;;;;;;;0.90;0.90;;;6.80;96.90;;;;;;4959002;29;20173;-60
2024/01/06 11:22:39;;;;;;;8.80;1.35;;;6.80;96.50;;;;;;4949231;29;20192;-60
2024/01/06 11:25:18;;;;;;;0.40;0.40;;;6.90;96.20;;;;;;4878552;29;20221;-61
2024/01/06 11:27:45;;;;;;;1.15;0.98;;;6.90;95.60;;;;;;4878066;29;20211;-60
2024/01/06 11:30:24;;;;;;;0.40;0.40;;;6.90;96.00;;;;;;4925898;29;20671;-60
2024/01/06 11:32:53;;;;;;;0.82;0.75;;;6.80;95.20;;;;;;4950498;29;20236;-60
2024/01/06 11:35:19;;;;;;;1.67;1.13;;;6.80;95.10;;;;;;4940634;29;20180;-61
2024/01/06 11:37:45;;;;;;;1.08;1.02;;;6.80;95.80;;;;;;4937646;29;20209;-61
2024/01/06 11:40:25;;;;;;;0.70;0.70;;;6.80;96.00;;;;;;4937996;29;20655;-61
2024/01/06 11:43:07;;;;;;;0.57;0.57;;;6.70;95.30;;;;;;4939980;29;20330;-60
2024/01/06 11:45:34;;;;;;;0.60;0.60;;;6.50;94.40;;;;;;4937405;29;20204;-60
2024/01/06 11:48:05;;;;;;;3.05;0.85;;;6.40;95.20;;;;;;4937915;29;20194;-61
2024/01/06 11:50:35;;;;;;;3.45;1.63;;;6.40;95.70;;;;;;4938868;29;20607;-60
2024/01/06 11:53:02;;;;;;;1.77;0.98;;;6.40;96.30;;;;;;4940933;29;20204;-60
2024/01/06 11:55:29;;;;;;;0.40;0.40;;;6.40;95.70;;;;;;4938760;29;20272;-60
2024/01/06 11:58:01;;;;;;;0.40;0.40;;;6.40;95.80;;;;;;4939515;29;20276;-60
2024/01/06 12:00:28;;;;;;;0.30;0.30;;;6.50;96.10;;;;;;4939117;29;20274;-60
2024/01/06 12:02:59;;;;;;;0.50;0.50;;;6.50;95.80;;;;;;4940194;29;20236;-61
2024/01/06 12:05:26;;;;;;;0.60;0.60;;;6.50;95.90;;;;;;4938000;29;20186;-61
2024/01/06 12:07:56;;;;;;;0.98;0.65;;;6.50;96.30;;;;;;4936741;29;20633;-61
2024/01/06 12:10:23;;;;;;;3.42;0.52;;;6.50;95.40;;;;;;4938583;29;20616;-60
2024/01/06 12:13:03;;;;;;;0.55;0.55;;;6.50;95.80;;;;;;4940885;29;20257;-60
2024/01/06 12:15:31;;;;;;;0.50;0.50;;;6.50;95.70;;;;;;4936582;29;20184;-60
2024/01/06 12:17:57;;;;;;;1.50;1.50;;;6.40;95.50;;;;;;4936266;29;20627;-61
2024/01/06 12:20:24;;;;;;;0.70;0.70;;;6.50;95.40;;;;;;4936788;29;20561;-60
2024/01/06 12:22:53;;;;;;;1.05;1.05;;;6.50;95.50;;;;;;4936735;29;20186;-61
2024/01/06 12:25:24;;;;;;;0.40;0.40;;;6.60;95.20;;;;;;4936853;29;20664;-60
2024/01/06 12:27:50;;;;;;;0.55;0.55;;;6.60;95.10;;;;;;4937754;29;20202;-60
2024/01/06 12:30:20;;;;;;;0.40;0.40;;;6.50;95.30;;;;;;4936257;29;20659;-61
2024/01/06 12:32:48;;;;;;;0.52;0.40;;;6.40;95.40;;;;;;4955711;29;20224;-60
2024/01/06 12:35:15;;;;;;;0.47;0.40;;;6.40;96.20;;;;;;4955243;29;20224;-61
2024/01/06 12:37:47;;;;;;;0.30;0.30;;;6.40;95.90;;;;;;4956032;28;20620;-61
2024/01/06 12:40:16;;;;;;;1.35;0.93;;;6.50;95.50;;;;;;4957219;29;20681;-61
2024/01/06 12:42:42;;;;;;;0.60;0.50;;;6.50;95.20;;;;;;4955814;29;20196;-60
2024/01/06 12:45:09;;;;;;;0.55;0.55;;;6.40;95.20;;;;;;4955337;29;20595;-61
2024/01/06 12:47:35;;;;;;;2.58;0.57;;;6.40;95.30;;;;;;4957148;28;20246;-61
2024/01/06 12:50:01;;;;;;;0.50;0.50;;;6.30;95.10;;;;;;4955382;29;20180;-60
2024/01/06 12:52:26;;;;;;;0.60;0.60;;;6.30;95.60;;;;;;4955388;29;20280;-61
2024/01/06 12:54:52;;;;;;;0.40;0.40;;;6.30;95.60;;;;;;4956659;29;20257;-60